sensor_id;sensor_type;location;lat;lon;timestamp;temperature;humidity
19192;DHT22;9728;48.194;16.346;2022-12-18T00:03:02;8.90;46.90
19192;DHT22;9728;48.194;16.346;2022-12-18T00:08:07;8.90;46.80
19192;DHT22;9728;48.194;16.346;2022-12-18T00:13:11;8.90;46.80
19192;DHT22;9728;48.194;16.346;2022-12-18T00:18:16;8.90;46.80
19192;DHT22;9728;48.194;16.346;2022-12-18T00:23:21;8.90;46.70
19192;DHT22;9728;48.194;16.346;2022-12-18T00:28:24;8.90;46.80
19192;DHT22;9728;48.194;16.346;2022-12-18T00:33:29;8.80;46.80
19192;DHT22;9728;48.194;16.346;2022-12-18T00:38:33;8.80;46.70
19192;DHT22;9728;48.194;16.346;2022-12-18T00:43:37;8.80;46.70
19192;DHT22;9728;48.194;16.346;2022-12-18T00:48:43;8.80;46.70
19192;DHT22;9728;48.194;16.346;2022-12-18T00:53:46;8.80;46.60
19192;DHT22;9728;48.194;16.346;2022-12-18T00:58:50;8.70;46.70
19192;DHT22;9728;48.194;16.346;2022-12-18T01:03:55;8.70;46.50
19192;DHT22;9728;48.194;16.346;2022-12-18T01:08:58;8.70;46.40
19192;DHT22;9728;48.194;16.346;2022-12-18T01:14:02;8.60;46.50
19192;DHT22;9728;48.194;16.346;2022-12-18T01:19:07;8.60;46.50
19192;DHT22;9728;48.194;16.346;2022-12-18T01:24:11;8.60;46.40
19192;DHT22;9728;48.194;16.346;2022-12-18T01:29:16;8.60;46.50
19192;DHT22;9728;48.194;16.346;2022-12-18T01:34:20;8.50;46.50
19192;DHT22;9728;48.194;16.346;2022-12-18T01:39:24;8.50;46.40
19192;DHT22;9728;48.194;16.346;2022-12-18T01:50:14;8.40;46.00
19192;DHT22;9728;48.194;16.346;2022-12-18T01:55:20;8.40;46.20
19192;DHT22;9728;48.194;16.346;2022-12-18T02:00:26;8.30;46.30
19192;DHT22;9728;48.194;16.346;2022-12-18T02:05:40;8.30;46.30
19192;DHT22;9728;48.194;16.346;2022-12-18T02:10:54;8.20;46.10
19192;DHT22;9728;48.194;16.346;2022-12-18T02:16:07;8.10;46.20
19192;DHT22;9728;48.194;16.346;2022-12-18T02:21:24;8.10;46.30
19192;DHT22;9728;48.194;16.346;2022-12-18T02:26:36;8.00;46.20
19192;DHT22;9728;48.194;16.346;2022-12-18T02:31:44;8.00;46.30
19192;DHT22;9728;48.194;16.346;2022-12-18T02:36:49;8.00;46.30
19192;DHT22;9728;48.194;16.346;2022-12-18T02:41:56;7.90;46.50
19192;DHT22;9728;48.194;16.346;2022-12-18T02:47:00;7.90;46.40
19192;DHT22;9728;48.194;16.346;2022-12-18T02:52:10;7.80;46.50
19192;DHT22;9728;48.194;16.346;2022-12-18T02:57:24;7.80;46.40
19192;DHT22;9728;48.194;16.346;2022-12-18T03:02:38;7.80;46.50
19192;DHT22;9728;48.194;16.346;2022-12-18T03:07:46;7.80;46.50
19192;DHT22;9728;48.194;16.346;2022-12-18T03:12:54;7.70;46.50
19192;DHT22;9728;48.194;16.346;2022-12-18T03:18:02;7.70;46.50
19192;DHT22;9728;48.194;16.346;2022-12-18T03:23:10;7.70;46.50
19192;DHT22;9728;48.194;16.346;2022-12-18T03:28:21;7.70;46.50
19192;DHT22;9728;48.194;16.346;2022-12-18T03:33:35;7.60;46.40
19192;DHT22;9728;48.194;16.346;2022-12-18T03:38:42;7.60;46.40
19192;DHT22;9728;48.194;16.346;2022-12-18T03:43:52;7.60;46.60
19192;DHT22;9728;48.194;16.346;2022-12-18T03:49:01;7.60;46.40
19192;DHT22;9728;48.194;16.346;2022-12-18T03:54:11;7.50;46.40
19192;DHT22;9728;48.194;16.346;2022-12-18T03:59:25;7.50;46.50
19192;DHT22;9728;48.194;16.346;2022-12-18T04:04:31;7.50;46.40
19192;DHT22;9728;48.194;16.346;2022-12-18T04:09:39;7.50;46.50
19192;DHT22;9728;48.194;16.346;2022-12-18T04:14:45;7.50;46.50
19192;DHT22;9728;48.194;16.346;2022-12-18T04:19:49;7.50;46.80
19192;DHT22;9728;48.194;16.346;2022-12-18T04:24:52;7.50;46.70
19192;DHT22;9728;48.194;16.346;2022-12-18T04:30:06;7.50;46.60
19192;DHT22;9728;48.194;16.346;2022-12-18T04:35:10;7.50;46.50
19192;DHT22;9728;48.194;16.346;2022-12-18T04:40:17;7.50;46.60
19192;DHT22;9728;48.194;16.346;2022-12-18T04:45:23;7.40;46.50
19192;DHT22;9728;48.194;16.346;2022-12-18T04:50:27;7.40;46.40
19192;DHT22;9728;48.194;16.346;2022-12-18T04:55:30;7.40;46.50
19192;DHT22;9728;48.194;16.346;2022-12-18T05:00:35;7.40;46.50
19192;DHT22;9728;48.194;16.346;2022-12-18T05:05:38;7.40;46.50
19192;DHT22;9728;48.194;16.346;2022-12-18T05:10:42;7.30;46.50
19192;DHT22;9728;48.194;16.346;2022-12-18T05:15:53;7.30;46.60
19192;DHT22;9728;48.194;16.346;2022-12-18T05:20:57;7.30;46.60
19192;DHT22;9728;48.194;16.346;2022-12-18T05:26:02;7.30;46.60
19192;DHT22;9728;48.194;16.346;2022-12-18T05:31:08;7.30;46.70
19192;DHT22;9728;48.194;16.346;2022-12-18T05:36:12;7.20;46.70
19192;DHT22;9728;48.194;16.346;2022-12-18T05:41:15;7.20;46.70
19192;DHT22;9728;48.194;16.346;2022-12-18T05:46:20;7.10;46.70
19192;DHT22;9728;48.194;16.346;2022-12-18T05:51:24;7.10;46.70
19192;DHT22;9728;48.194;16.346;2022-12-18T05:56:27;7.10;46.80
19192;DHT22;9728;48.194;16.346;2022-12-18T06:01:31;7.10;46.80
19192;DHT22;9728;48.194;16.346;2022-12-18T06:06:35;7.00;46.80
19192;DHT22;9728;48.194;16.346;2022-12-18T06:11:39;7.00;46.90
19192;DHT22;9728;48.194;16.346;2022-12-18T06:16:44;7.00;46.90
19192;DHT22;9728;48.194;16.346;2022-12-18T06:21:47;7.00;46.90
19192;DHT22;9728;48.194;16.346;2022-12-18T06:26:51;7.00;46.90
19192;DHT22;9728;48.194;16.346;2022-12-18T06:31:55;6.90;46.90
19192;DHT22;9728;48.194;16.346;2022-12-18T06:36:59;6.90;46.90
19192;DHT22;9728;48.194;16.346;2022-12-18T06:42:03;6.90;46.90
19192;DHT22;9728;48.194;16.346;2022-12-18T06:47:08;6.80;46.90
19192;DHT22;9728;48.194;16.346;2022-12-18T06:52:11;6.80;46.90
19192;DHT22;9728;48.194;16.346;2022-12-18T06:57:14;6.80;47.00
19192;DHT22;9728;48.194;16.346;2022-12-18T07:02:19;6.80;47.00
19192;DHT22;9728;48.194;16.346;2022-12-18T07:07:23;6.80;47.00
19192;DHT22;9728;48.194;16.346;2022-12-18T07:12:26;6.70;47.10
19192;DHT22;9728;48.194;16.346;2022-12-18T07:17:31;6.70;47.10
19192;DHT22;9728;48.194;16.346;2022-12-18T07:22:34;6.70;47.10
19192;DHT22;9728;48.194;16.346;2022-12-18T07:27:38;6.70;47.10
19192;DHT22;9728;48.194;16.346;2022-12-18T07:32:42;6.70;47.20
19192;DHT22;9728;48.194;16.346;2022-12-18T07:37:46;6.70;47.20
19192;DHT22;9728;48.194;16.346;2022-12-18T07:42:49;6.70;47.30
19192;DHT22;9728;48.194;16.346;2022-12-18T07:47:53;6.70;47.30
19192;DHT22;9728;48.194;16.346;2022-12-18T07:52:57;6.70;47.30
19192;DHT22;9728;48.194;16.346;2022-12-18T07:58:05;6.70;47.30
19192;DHT22;9728;48.194;16.346;2022-12-18T08:03:10;6.80;47.40
19192;DHT22;9728;48.194;16.346;2022-12-18T08:08:15;6.80;47.40
19192;DHT22;9728;48.194;16.346;2022-12-18T08:13:22;6.80;47.40
19192;DHT22;9728;48.194;16.346;2022-12-18T08:18:27;6.80;47.40
19192;DHT22;9728;48.194;16.346;2022-12-18T08:23:30;6.80;47.50
19192;DHT22;9728;48.194;16.346;2022-12-18T08:28:39;6.80;47.50
19192;DHT22;9728;48.194;16.346;2022-12-18T08:33:43;6.90;47.60
19192;DHT22;9728;48.194;16.346;2022-12-18T08:38:47;6.90;47.50
19192;DHT22;9728;48.194;16.346;2022-12-18T08:43:51;6.90;47.40
19192;DHT22;9728;48.194;16.346;2022-12-18T08:49:13;7.00;47.90
19192;DHT22;9728;48.194;16.346;2022-12-18T08:54:16;7.00;49.40
19192;DHT22;9728;48.194;16.346;2022-12-18T08:59:20;7.20;48.80
19192;DHT22;9728;48.194;16.346;2022-12-18T09:04:24;7.30;48.20
19192;DHT22;9728;48.194;16.346;2022-12-18T09:09:28;7.30;47.80
19192;DHT22;9728;48.194;16.346;2022-12-18T09:14:31;7.40;47.80
19192;DHT22;9728;48.194;16.346;2022-12-18T09:19:36;7.40;47.70
19192;DHT22;9728;48.194;16.346;2022-12-18T09:24:39;7.40;47.60
19192;DHT22;9728;48.194;16.346;2022-12-18T09:29:43;7.40;47.50
19192;DHT22;9728;48.194;16.346;2022-12-18T09:34:47;7.40;47.60
19192;DHT22;9728;48.194;16.346;2022-12-18T09:39:51;7.40;47.40
19192;DHT22;9728;48.194;16.346;2022-12-18T09:44:54;7.40;47.40
19192;DHT22;9728;48.194;16.346;2022-12-18T09:50:02;7.40;47.40
19192;DHT22;9728;48.194;16.346;2022-12-18T09:55:13;7.40;47.20
19192;DHT22;9728;48.194;16.346;2022-12-18T10:00:23;7.30;47.10
19192;DHT22;9728;48.194;16.346;2022-12-18T10:05:36;7.40;47.30
19192;DHT22;9728;48.194;16.346;2022-12-18T10:10:45;7.30;47.00
19192;DHT22;9728;48.194;16.346;2022-12-18T10:16:08;7.30;47.10
19192;DHT22;9728;48.194;16.346;2022-12-18T10:21:18;7.30;47.00
19192;DHT22;9728;48.194;16.346;2022-12-18T10:26:22;7.20;47.10
19192;DHT22;9728;48.194;16.346;2022-12-18T10:31:26;7.20;47.30
19192;DHT22;9728;48.194;16.346;2022-12-18T10:36:31;7.20;47.30
19192;DHT22;9728;48.194;16.346;2022-12-18T10:41:34;7.20;50.40
19192;DHT22;9728;48.194;16.346;2022-12-18T10:46:38;7.60;54.80
19192;DHT22;9728;48.194;16.346;2022-12-18T10:51:43;8.10;52.70
19192;DHT22;9728;48.194;16.346;2022-12-18T10:56:46;8.40;50.30
19192;DHT22;9728;48.194;16.346;2022-12-18T11:01:52;8.60;49.70
19192;DHT22;9728;48.194;16.346;2022-12-18T11:07:00;8.70;48.80
19192;DHT22;9728;48.194;16.346;2022-12-18T11:12:15;8.70;48.00
19192;DHT22;9728;48.194;16.346;2022-12-18T11:17:21;8.60;48.90
19192;DHT22;9728;48.194;16.346;2022-12-18T11:22:30;8.60;48.40
19192;DHT22;9728;48.194;16.346;2022-12-18T11:27:34;8.70;48.20
19192;DHT22;9728;48.194;16.346;2022-12-18T11:32:38;8.70;47.80
19192;DHT22;9728;48.194;16.346;2022-12-18T11:37:48;8.60;47.40
19192;DHT22;9728;48.194;16.346;2022-12-18T11:42:58;8.60;47.00
19192;DHT22;9728;48.194;16.346;2022-12-18T11:48:12;8.40;47.30
19192;DHT22;9728;48.194;16.346;2022-12-18T11:53:19;8.40;47.10
19192;DHT22;9728;48.194;16.346;2022-12-18T12:09:40;8.20;46.70
19192;DHT22;9728;48.194;16.346;2022-12-18T12:14:55;8.10;46.90
19192;DHT22;9728;48.194;16.346;2022-12-18T12:20:06;8.00;46.90
19192;DHT22;9728;48.194;16.346;2022-12-18T12:25:23;8.00;46.90
19192;DHT22;9728;48.194;16.346;2022-12-18T12:30:35;7.90;46.90
19192;DHT22;9728;48.194;16.346;2022-12-18T12:35:47;7.90;47.10
19192;DHT22;9728;48.194;16.346;2022-12-18T12:40:56;7.90;47.00
19192;DHT22;9728;48.194;16.346;2022-12-18T12:46:06;7.90;47.00
19192;DHT22;9728;48.194;16.346;2022-12-18T12:51:14;7.90;47.10
19192;DHT22;9728;48.194;16.346;2022-12-18T12:56:21;7.80;47.00
19192;DHT22;9728;48.194;16.346;2022-12-18T13:01:32;7.80;46.90
19192;DHT22;9728;48.194;16.346;2022-12-18T13:06:42;7.70;46.90
19192;DHT22;9728;48.194;16.346;2022-12-18T13:11:48;7.60;47.00
19192;DHT22;9728;48.194;16.346;2022-12-18T13:17:24;7.60;47.10
19192;DHT22;9728;48.194;16.346;2022-12-18T13:22:35;7.60;47.00
19192;DHT22;9728;48.194;16.346;2022-12-18T13:27:57;7.50;47.10
19192;DHT22;9728;48.194;16.346;2022-12-18T13:39:32;7.50;51.60
19192;DHT22;9728;48.194;16.346;2022-12-18T13:44:40;7.70;49.60
19192;DHT22;9728;48.194;16.346;2022-12-18T13:49:46;7.90;49.60
19192;DHT22;9728;48.194;16.346;2022-12-18T13:54:52;8.00;48.80
19192;DHT22;9728;48.194;16.346;2022-12-18T13:59:58;8.10;48.20
19192;DHT22;9728;48.194;16.346;2022-12-18T14:05:02;8.10;47.80
19192;DHT22;9728;48.194;16.346;2022-12-18T14:10:12;8.10;47.60
19192;DHT22;9728;48.194;16.346;2022-12-18T14:15:41;8.10;47.30
19192;DHT22;9728;48.194;16.346;2022-12-18T14:20:48;8.00;47.20
19192;DHT22;9728;48.194;16.346;2022-12-18T14:25:54;7.90;47.20
19192;DHT22;9728;48.194;16.346;2022-12-18T14:31:17;7.90;47.20
19192;DHT22;9728;48.194;16.346;2022-12-18T14:36:23;7.80;47.10
19192;DHT22;9728;48.194;16.346;2022-12-18T14:41:27;7.70;47.20
19192;DHT22;9728;48.194;16.346;2022-12-18T14:46:35;7.70;47.30
19192;DHT22;9728;48.194;16.346;2022-12-18T14:51:41;7.60;47.30
19192;DHT22;9728;48.194;16.346;2022-12-18T14:56:59;7.60;47.40
19192;DHT22;9728;48.194;16.346;2022-12-18T15:02:13;7.50;47.30
19192;DHT22;9728;48.194;16.346;2022-12-18T15:07:21;7.50;47.30
19192;DHT22;9728;48.194;16.346;2022-12-18T15:12:33;7.50;47.40
19192;DHT22;9728;48.194;16.346;2022-12-18T15:17:40;7.40;47.40
19192;DHT22;9728;48.194;16.346;2022-12-18T15:22:47;7.40;47.50
19192;DHT22;9728;48.194;16.346;2022-12-18T15:27:52;7.30;47.60
19192;DHT22;9728;48.194;16.346;2022-12-18T15:33:24;7.30;47.70
19192;DHT22;9728;48.194;16.346;2022-12-18T15:38:29;7.30;47.70
19192;DHT22;9728;48.194;16.346;2022-12-18T15:43:38;7.30;47.70
19192;DHT22;9728;48.194;16.346;2022-12-18T15:48:46;7.20;47.70
19192;DHT22;9728;48.194;16.346;2022-12-18T15:53:55;7.20;47.70
19192;DHT22;9728;48.194;16.346;2022-12-18T15:59:01;7.20;47.90
19192;DHT22;9728;48.194;16.346;2022-12-18T16:04:15;7.20;47.90
19192;DHT22;9728;48.194;16.346;2022-12-18T16:09:20;7.20;48.60
19192;DHT22;9728;48.194;16.346;2022-12-18T16:14:29;7.20;48.30
19192;DHT22;9728;48.194;16.346;2022-12-18T16:19:35;7.30;48.30
19192;DHT22;9728;48.194;16.346;2022-12-18T16:24:40;7.30;48.20
19192;DHT22;9728;48.194;16.346;2022-12-18T16:29:46;7.30;48.50
19192;DHT22;9728;48.194;16.346;2022-12-18T16:34:53;7.40;48.40
19192;DHT22;9728;48.194;16.346;2022-12-18T16:39:57;7.40;48.60
19192;DHT22;9728;48.194;16.346;2022-12-18T16:45:03;7.40;48.30
19192;DHT22;9728;48.194;16.346;2022-12-18T16:50:10;7.40;48.20
19192;DHT22;9728;48.194;16.346;2022-12-18T16:55:15;7.40;48.20
19192;DHT22;9728;48.194;16.346;2022-12-18T17:00:20;7.40;48.20
19192;DHT22;9728;48.194;16.346;2022-12-18T17:05:27;7.40;48.20
19192;DHT22;9728;48.194;16.346;2022-12-18T17:10:39;7.40;48.30
19192;DHT22;9728;48.194;16.346;2022-12-18T17:15:44;7.40;48.30
19192;DHT22;9728;48.194;16.346;2022-12-18T17:20:58;7.40;48.40
19192;DHT22;9728;48.194;16.346;2022-12-18T17:26:04;7.40;48.50
19192;DHT22;9728;48.194;16.346;2022-12-18T17:31:12;7.40;48.50
19192;DHT22;9728;48.194;16.346;2022-12-18T17:36:20;7.50;48.50
19192;DHT22;9728;48.194;16.346;2022-12-18T17:41:26;7.50;49.20
19192;DHT22;9728;48.194;16.346;2022-12-18T17:46:33;7.50;48.50
19192;DHT22;9728;48.194;16.346;2022-12-18T17:51:39;7.50;48.50
19192;DHT22;9728;48.194;16.346;2022-12-18T17:56:45;7.60;48.60
19192;DHT22;9728;48.194;16.346;2022-12-18T18:01:51;7.60;48.90
19192;DHT22;9728;48.194;16.346;2022-12-18T18:06:59;7.60;49.40
19192;DHT22;9728;48.194;16.346;2022-12-18T18:12:04;7.80;49.40
19192;DHT22;9728;48.194;16.346;2022-12-18T18:17:27;7.80;49.10
19192;DHT22;9728;48.194;16.346;2022-12-18T18:22:36;7.90;50.00
19192;DHT22;9728;48.194;16.346;2022-12-18T18:27:41;8.00;50.10
19192;DHT22;9728;48.194;16.346;2022-12-18T18:32:49;8.20;49.90
19192;DHT22;9728;48.194;16.346;2022-12-18T18:37:57;8.20;49.40
19192;DHT22;9728;48.194;16.346;2022-12-18T18:43:02;8.30;49.20
19192;DHT22;9728;48.194;16.346;2022-12-18T18:48:08;8.40;49.70
19192;DHT22;9728;48.194;16.346;2022-12-18T18:53:15;8.40;49.50
19192;DHT22;9728;48.194;16.346;2022-12-18T18:58:19;8.50;49.30
19192;DHT22;9728;48.194;16.346;2022-12-18T19:03:25;8.50;49.00
19192;DHT22;9728;48.194;16.346;2022-12-18T19:08:34;8.60;49.30
19192;DHT22;9728;48.194;16.346;2022-12-18T19:13:39;8.60;48.80
19192;DHT22;9728;48.194;16.346;2022-12-18T19:18:43;8.60;49.70
19192;DHT22;9728;48.194;16.346;2022-12-18T19:23:51;8.60;49.70
19192;DHT22;9728;48.194;16.346;2022-12-18T19:29:02;8.70;49.30
19192;DHT22;9728;48.194;16.346;2022-12-18T19:34:07;8.70;49.00
19192;DHT22;9728;48.194;16.346;2022-12-18T19:39:16;8.70;48.90
19192;DHT22;9728;48.194;16.346;2022-12-18T19:44:22;8.70;49.10
19192;DHT22;9728;48.194;16.346;2022-12-18T19:49:27;8.70;48.70
19192;DHT22;9728;48.194;16.346;2022-12-18T19:54:33;8.70;49.30
19192;DHT22;9728;48.194;16.346;2022-12-18T19:59:39;8.70;48.60
19192;DHT22;9728;48.194;16.346;2022-12-18T20:04:46;8.60;48.60
19192;DHT22;9728;48.194;16.346;2022-12-18T20:09:52;8.60;48.60
19192;DHT22;9728;48.194;16.346;2022-12-18T20:15:08;8.60;48.60
19192;DHT22;9728;48.194;16.346;2022-12-18T20:20:12;8.60;48.60
19192;DHT22;9728;48.194;16.346;2022-12-18T20:25:19;8.60;49.20
19192;DHT22;9728;48.194;16.346;2022-12-18T20:30:25;8.60;50.30
19192;DHT22;9728;48.194;16.346;2022-12-18T20:35:31;8.70;50.10
19192;DHT22;9728;48.194;16.346;2022-12-18T20:40:43;8.80;49.60
19192;DHT22;9728;48.194;16.346;2022-12-18T20:45:47;8.80;49.20
19192;DHT22;9728;48.194;16.346;2022-12-18T20:50:56;8.90;49.70
19192;DHT22;9728;48.194;16.346;2022-12-18T20:56:07;8.90;49.50
19192;DHT22;9728;48.194;16.346;2022-12-18T21:01:13;9.00;49.10
19192;DHT22;9728;48.194;16.346;2022-12-18T21:06:19;9.00;48.90
19192;DHT22;9728;48.194;16.346;2022-12-18T21:11:27;9.00;48.70
19192;DHT22;9728;48.194;16.346;2022-12-18T21:16:50;8.90;48.60
19192;DHT22;9728;48.194;16.346;2022-12-18T21:21:54;8.90;48.60
19192;DHT22;9728;48.194;16.346;2022-12-18T21:27:00;8.90;48.60
19192;DHT22;9728;48.194;16.346;2022-12-18T21:32:04;8.80;48.60
19192;DHT22;9728;48.194;16.346;2022-12-18T21:37:09;8.80;48.60
19192;DHT22;9728;48.194;16.346;2022-12-18T21:42:15;8.80;48.60
19192;DHT22;9728;48.194;16.346;2022-12-18T21:47:36;8.70;48.50
19192;DHT22;9728;48.194;16.346;2022-12-18T21:52:40;8.80;48.50
19192;DHT22;9728;48.194;16.346;2022-12-18T21:57:44;8.70;48.50
19192;DHT22;9728;48.194;16.346;2022-12-18T22:02:48;8.70;48.40
19192;DHT22;9728;48.194;16.346;2022-12-18T22:08:11;8.60;48.40
19192;DHT22;9728;48.194;16.346;2022-12-18T22:13:17;8.60;48.50
19192;DHT22;9728;48.194;16.346;2022-12-18T22:18:20;8.50;48.40
19192;DHT22;9728;48.194;16.346;2022-12-18T22:23:23;8.50;48.40
19192;DHT22;9728;48.194;16.346;2022-12-18T22:28:28;8.50;48.40
19192;DHT22;9728;48.194;16.346;2022-12-18T22:33:49;8.40;48.30
19192;DHT22;9728;48.194;16.346;2022-12-18T22:38:53;8.40;48.40
19192;DHT22;9728;48.194;16.346;2022-12-18T22:43:58;8.30;48.40
19192;DHT22;9728;48.194;16.346;2022-12-18T22:49:01;8.30;48.50
19192;DHT22;9728;48.194;16.346;2022-12-18T22:54:05;8.30;48.50
19192;DHT22;9728;48.194;16.346;2022-12-18T22:59:17;8.30;48.50
19192;DHT22;9728;48.194;16.346;2022-12-18T23:04:21;8.20;48.60
19192;DHT22;9728;48.194;16.346;2022-12-18T23:09:31;8.20;48.60
19192;DHT22;9728;48.194;16.346;2022-12-18T23:14:36;8.20;48.60
19192;DHT22;9728;48.194;16.346;2022-12-18T23:19:39;8.20;48.60
19192;DHT22;9728;48.194;16.346;2022-12-18T23:24:49;8.20;48.60
19192;DHT22;9728;48.194;16.346;2022-12-18T23:29:54;8.20;48.60
19192;DHT22;9728;48.194;16.346;2022-12-18T23:35:01;8.20;48.60
19192;DHT22;9728;48.194;16.346;2022-12-18T23:40:10;8.20;48.60
19192;DHT22;9728;48.194;16.346;2022-12-18T23:45:17;8.10;48.60
19192;DHT22;9728;48.194;16.346;2022-12-18T23:50:23;8.20;48.70
19192;DHT22;9728;48.194;16.346;2022-12-18T23:55:37;8.10;48.60
